Time;durP1;ratioP1;P1;durP2;ratioP2;P2;SDS_P1;SDS_P2;PMS_P1;PMS_P2;Temp;Humidity;BMP_temperature;BMP_pressure;BME280_temperature;BME280_humidity;BME280_pressure;Samples;Min_cycle;Max_cycle;Signal;HPM_P1;HPM_P2
2023/12/06 00:01:16;;;;;;;2.35;1.92;;;0.20;99.90;;;;;;5035886;28;20041;-85
2023/12/06 00:03:42;;;;;;;1.85;1.73;;;0.20;99.90;;;;;;5035462;28;20542;-85
2023/12/06 00:06:08;;;;;;;3.33;2.88;;;0.20;99.90;;;;;;5035502;28;20041;-85
2023/12/06 00:08:34;;;;;;;1.55;1.45;;;0.20;99.90;;;;;;5035739;28;20049;-85
2023/12/06 00:10:59;;;;;;;1.65;1.55;;;0.30;99.90;;;;;;5027081;28;20427;-85
2023/12/06 00:13:25;;;;;;;6.13;2.47;;;0.20;99.90;;;;;;5024014;28;20056;-85
2023/12/06 00:15:51;;;;;;;1.67;1.55;;;0.20;99.90;;;;;;5035134;28;20041;-85
2023/12/06 00:18:16;;;;;;;2.70;1.52;;;0.20;99.90;;;;;;5035067;28;20076;-85
2023/12/06 00:20:42;;;;;;;1.10;0.85;;;0.20;99.90;;;;;;5033735;28;20072;-85
2023/12/06 00:23:08;;;;;;;1.20;1.17;;;0.20;99.90;;;;;;5034531;28;20048;-85
2023/12/06 00:25:33;;;;;;;1.45;1.33;;;0.30;99.90;;;;;;5035129;28;20514;-85
2023/12/06 00:27:59;;;;;;;4.93;4.27;;;0.20;99.90;;;;;;5035017;28;20112;-85
2023/12/06 00:30:24;;;;;;;3.33;2.37;;;0.20;1.00;;;;;;5035349;28;20399;-85
2023/12/06 00:32:50;;;;;;;5.32;1.38;;;0.30;1.00;;;;;;5034773;28;20523;-85
2023/12/06 00:35:16;;;;;;;0.60;0.60;;;0.30;1.00;;;;;;5034563;28;20037;-85
2023/12/06 00:37:41;;;;;;;2.03;1.93;;;0.40;1.00;;;;;;5035426;28;20072;-85
2023/12/06 00:40:07;;;;;;;1.97;1.60;;;0.30;1.00;;;;;;5035366;28;20037;-86
2023/12/06 00:42:33;;;;;;;3.33;1.67;;;0.40;1.00;;;;;;5034714;28;20041;-85
2023/12/06 00:44:58;;;;;;;3.83;2.33;;;0.30;1.00;;;;;;5034928;28;20045;-85
2023/12/06 00:47:24;;;;;;;1.48;1.38;;;0.40;1.00;;;;;;5033812;28;20084;-85
2023/12/06 00:49:49;;;;;;;0.65;0.65;;;0.40;1.00;;;;;;5034827;28;20049;-85
2023/12/06 00:52:15;;;;;;;1.35;1.27;;;0.30;1.00;;;;;;5035131;28;20038;-85
2023/12/06 00:54:41;;;;;;;4.27;2.67;;;0.30;1.00;;;;;;5035007;28;20052;-85
2023/12/06 00:57:06;;;;;;;0.73;0.73;;;0.30;1.00;;;;;;5035250;28;20045;-85
2023/12/06 00:59:32;;;;;;;1.90;1.80;;;0.30;1.00;;;;;;5034683;28;20049;-85
2023/12/06 01:01:57;;;;;;;1.20;1.10;;;0.30;1.00;;;;;;5034765;28;20037;-85
2023/12/06 01:04:23;;;;;;;0.53;0.53;;;0.30;1.00;;;;;;5038345;28;20081;-85
2023/12/06 01:06:48;;;;;;;0.70;0.70;;;0.40;1.00;;;;;;5038988;28;20399;-85
2023/12/06 01:09:14;;;;;;;1.73;1.37;;;0.30;1.00;;;;;;5038911;28;20042;-85
2023/12/06 01:11:39;;;;;;;0.20;0.20;;;0.30;1.00;;;;;;5038480;28;20495;-85
2023/12/06 01:14:05;;;;;;;3.60;3.30;;;0.30;1.00;;;;;;5036769;28;20127;-85
2023/12/06 01:16:31;;;;;;;1.83;1.73;;;0.40;1.00;;;;;;5038149;28;20050;-85
2023/12/06 01:18:56;;;;;;;0.40;0.40;;;0.40;1.00;;;;;;5038355;28;20120;-84
2023/12/06 01:21:22;;;;;;;1.17;1.13;;;0.40;1.00;;;;;;5038311;28;20094;-85
2023/12/06 01:23:47;;;;;;;2.03;1.88;;;0.40;1.00;;;;;;5038242;28;20033;-84
2023/12/06 01:26:13;;;;;;;4.40;2.37;;;0.30;1.00;;;;;;5038145;28;20037;-85
2023/12/06 01:28:38;;;;;;;7.17;3.00;;;0.40;38.90;;;;;;5037657;28;20041;-85
2023/12/06 01:31:04;;;;;;;1.33;1.23;;;0.40;45.60;;;;;;5037397;28;20045;-85
2023/12/06 01:33:30;;;;;;;3.77;1.93;;;0.60;41.20;;;;;;5037449;28;20087;-86
2023/12/06 01:35:55;;;;;;;1.58;1.48;;;0.40;87.30;;;;;;5037820;28;20046;-85
2023/12/06 01:38:21;;;;;;;1.23;1.13;;;0.40;41.80;;;;;;5037537;28;20037;-85
2023/12/06 01:40:46;;;;;;;1.60;1.50;;;0.40;33.70;;;;;;5037830;28;20376;-85
2023/12/06 01:43:12;;;;;;;3.77;2.37;;;0.40;45.20;;;;;;5037848;28;20045;-85
2023/12/06 01:45:37;;;;;;;0.88;0.88;;;0.40;66.10;;;;;;5038499;28;20483;-85
2023/12/06 01:48:04;;;;;;;0.30;0.30;;;0.40;56.30;;;;;;5036889;28;20081;-86
2023/12/06 01:50:31;;;;;;;2.73;2.50;;;0.40;82.00;;;;;;5037651;28;20072;-85
2023/12/06 01:52:59;;;;;;;0.47;0.47;;;0.40;99.90;;;;;;5037522;28;20454;-85
2023/12/06 01:55:24;;;;;;;3.15;2.10;;;0.40;95.80;;;;;;5037670;28;20076;-85
2023/12/06 01:57:51;;;;;;;1.50;1.40;;;0.50;99.90;;;;;;5037976;28;20037;-85
2023/12/06 02:00:17;;;;;;;3.30;2.10;;;0.40;98.30;;;;;;5039776;28;20120;-86
2023/12/06 02:02:44;;;;;;;0.43;0.43;;;0.50;99.90;;;;;;5038907;28;20041;-86
2023/12/06 02:05:11;;;;;;;9.33;2.93;;;0.40;99.90;;;;;;5040021;28;20513;-85
2023/12/06 02:07:38;;;;;;;1.40;1.30;;;0.50;99.90;;;;;;5037659;28;20045;-85
2023/12/06 02:10:04;;;;;;;2.27;2.00;;;0.50;99.90;;;;;;5037877;28;20041;-85
2023/12/06 02:12:29;;;;;;;1.67;1.58;;;0.40;99.90;;;;;;5037962;28;20037;-85
2023/12/06 02:14:58;;;;;;;2.70;1.88;;;0.40;99.90;;;;;;5036997;28;20060;-85
2023/12/06 02:17:26;;;;;;;1.15;1.10;;;0.50;99.90;;;;;;5037301;28;20053;-85
2023/12/06 02:19:53;;;;;;;2.45;1.98;;;0.50;99.90;;;;;;5037017;28;20128;-86
2023/12/06 02:22:19;;;;;;;1.02;1.02;;;0.50;99.90;;;;;;5037337;28;20068;-86
2023/12/06 02:24:47;;;;;;;1.13;1.07;;;0.50;99.90;;;;;;5037806;28;20116;-85
2023/12/06 02:27:13;;;;;;;1.77;1.60;;;0.40;99.90;;;;;;5037025;28;20116;-85
2023/12/06 02:29:39;;;;;;;1.13;1.13;;;1.10;99.90;;;;;;5036613;28;20076;-85
2023/12/06 02:32:05;;;;;;;1.33;1.23;;;0.40;99.90;;;;;;5036660;28;20038;-86
2023/12/06 02:34:32;;;;;;;1.90;1.80;;;0.40;99.90;;;;;;5036472;28;20049;-85
2023/12/06 02:37:00;;;;;;;3.50;2.90;;;0.40;1.00;;;;;;5036593;28;20422;-86
2023/12/06 02:39:34;;;;;;;1.07;1.07;;;0.40;1.00;;;;;;5020093;28;20040;-85
2023/12/06 02:41:59;;;;;;;2.23;1.93;;;0.40;1.00;;;;;;5036795;28;20076;-85
2023/12/06 02:44:25;;;;;;;3.07;2.87;;;0.40;88.60;;;;;;5036225;28;20033;-85
2023/12/06 02:46:51;;;;;;;1.88;1.48;;;0.40;93.30;;;;;;5036508;28;20083;-85
2023/12/06 02:49:16;;;;;;;0.70;0.70;;;0.40;99.90;;;;;;5035951;28;20446;-85
2023/12/06 02:51:42;;;;;;;4.15;2.85;;;0.50;99.90;;;;;;5035908;28;20080;-85
2023/12/06 02:54:07;;;;;;;0.32;0.32;;;0.50;99.90;;;;;;5036495;28;20091;-85
2023/12/06 02:56:33;;;;;;;1.03;1.00;;;0.40;99.90;;;;;;5036882;28;20096;-85
2023/12/06 02:58:59;;;;;;;0.40;0.40;;;0.40;99.90;;;;;;5036362;28;20511;-85
2023/12/06 03:01:24;;;;;;;1.05;1.02;;;0.40;99.90;;;;;;5036291;28;20045;-85
2023/12/06 03:03:50;;;;;;;2.30;2.10;;;0.40;99.90;;;;;;5035252;28;20148;-85
2023/12/06 03:06:15;;;;;;;2.92;2.72;;;0.50;99.90;;;;;;5034719;28;20088;-86
2023/12/06 03:08:41;;;;;;;2.17;1.90;;;0.50;99.90;;;;;;5039233;28;20048;-84
2023/12/06 03:11:07;;;;;;;0.47;0.40;;;0.40;99.90;;;;;;5035368;28;20107;-85
2023/12/06 03:13:32;;;;;;;4.80;1.73;;;0.50;99.90;;;;;;5035204;28;20502;-85
2023/12/06 03:15:58;;;;;;;1.50;1.40;;;0.40;99.90;;;;;;5034685;28;20045;-84
2023/12/06 03:18:23;;;;;;;2.00;1.85;;;0.50;1.00;;;;;;5035334;28;20099;-85
2023/12/06 03:20:49;;;;;;;2.23;2.03;;;0.40;1.00;;;;;;5035324;28;20048;-85
2023/12/06 03:23:14;;;;;;;0.77;0.77;;;0.40;1.00;;;;;;5035215;28;20033;-85
2023/12/06 03:25:40;;;;;;;1.58;1.48;;;0.40;1.00;;;;;;5034133;28;20107;-84
2023/12/06 03:28:05;;;;;;;3.63;2.90;;;0.40;1.00;;;;;;5034998;28;20049;-84
2023/12/06 03:30:31;;;;;;;4.27;2.97;;;0.40;99.90;;;;;;5035012;28;20038;-85
2023/12/06 03:32:56;;;;;;;3.20;1.65;;;0.40;99.90;;;;;;5034117;28;20416;-84
2023/12/06 03:35:22;;;;;;;1.05;0.98;;;0.50;99.90;;;;;;5035201;28;20034;-84
2023/12/06 03:37:48;;;;;;;6.03;2.43;;;0.50;99.90;;;;;;5035687;28;20045;-84
2023/12/06 03:40:13;;;;;;;4.33;0.70;;;0.50;99.90;;;;;;5034815;28;20037;-85
2023/12/06 03:42:39;;;;;;;1.80;1.65;;;0.50;99.90;;;;;;5034924;28;20084;-84
2023/12/06 03:45:05;;;;;;;1.17;1.07;;;0.50;99.90;;;;;;5033288;28;20037;-84
2023/12/06 03:47:31;;;;;;;2.30;2.08;;;0.50;99.90;;;;;;5035142;28;20044;-85
2023/12/06 03:49:56;;;;;;;1.38;1.27;;;0.50;99.90;;;;;;5034695;28;20045;-85
2023/12/06 03:52:22;;;;;;;0.70;0.70;;;0.40;99.90;;;;;;5034640;28;20037;-85
2023/12/06 03:54:48;;;;;;;2.65;1.55;;;0.50;99.90;;;;;;5034326;28;20041;-85
2023/12/06 03:57:13;;;;;;;3.00;2.40;;;0.50;1.00;;;;;;5034342;28;20048;-85
2023/12/06 03:59:39;;;;;;;0.57;0.57;;;0.50;1.00;;;;;;5034112;28;20067;-85
2023/12/06 04:02:05;;;;;;;2.37;2.10;;;0.50;1.00;;;;;;5034873;28;20052;-85
2023/12/06 04:04:30;;;;;;;0.27;0.27;;;0.50;1.00;;;;;;5034441;28;20442;-85
2023/12/06 04:06:56;;;;;;;0.33;0.33;;;0.50;1.00;;;;;;5034974;28;20041;-85
2023/12/06 04:09:21;;;;;;;4.77;2.73;;;0.50;1.00;;;;;;5034575;28;20041;-85
2023/12/06 04:11:47;;;;;;;1.30;1.20;;;0.50;1.00;;;;;;5033562;28;20041;-85
2023/12/06 04:14:13;;;;;;;0.10;0.10;;;0.50;1.00;;;;;;5034825;28;20510;-85
2023/12/06 04:16:38;;;;;;;3.87;2.17;;;0.50;1.00;;;;;;5034998;28;20448;-86
2023/12/06 04:19:04;;;;;;;2.67;1.37;;;0.40;1.00;;;;;;5034238;28;20064;-85
2023/12/06 04:21:30;;;;;;;1.55;1.45;;;0.50;1.00;;;;;;5034903;28;20132;-86
2023/12/06 04:23:55;;;;;;;1.27;1.17;;;0.50;1.00;;;;;;5034303;28;20045;-85
2023/12/06 04:26:21;;;;;;;1.53;1.43;;;0.50;1.00;;;;;;5033612;28;20076;-86
2023/12/06 04:28:47;;;;;;;1.90;1.75;;;0.50;1.00;;;;;;5034100;28;20479;-86
2023/12/06 04:31:13;;;;;;;0.83;0.80;;;0.50;1.00;;;;;;5033991;28;20049;-86
2023/12/06 04:33:38;;;;;;;2.35;2.10;;;0.50;1.00;;;;;;5033962;28;20103;-86
2023/12/06 04:36:04;;;;;;;0.67;0.67;;;0.50;1.00;;;;;;5032494;28;20529;-86
2023/12/06 04:38:30;;;;;;;1.47;1.37;;;0.60;1.00;;;;;;5037088;28;20041;-86
2023/12/06 04:40:56;;;;;;;0.80;0.80;;;0.50;1.00;;;;;;5038196;28;20474;-86
2023/12/06 04:43:22;;;;;;;0.33;0.33;;;0.50;1.00;;;;;;5038044;28;20072;-86
2023/12/06 04:45:48;;;;;;;1.50;1.40;;;0.50;1.00;;;;;;5037998;28;20041;-86
2023/12/06 04:48:14;;;;;;;0.10;0.10;;;0.50;1.00;;;;;;5037608;28;20491;-86
2023/12/06 04:50:39;;;;;;;0.37;0.37;;;0.50;1.00;;;;;;5037332;28;20041;-86
2023/12/06 04:53:05;;;;;;;1.13;0.87;;;0.50;1.00;;;;;;5037412;28;20052;-87
2023/12/06 04:55:30;;;;;;;1.03;1.03;;;0.50;1.00;;;;;;5037501;28;20045;-86
2023/12/06 04:57:56;;;;;;;1.37;1.27;;;0.50;1.00;;;;;;5037678;28;20052;-86
2023/12/06 05:00:22;;;;;;;0.50;0.50;;;0.50;1.00;;;;;;5037476;28;20411;-86
2023/12/06 05:02:47;;;;;;;1.17;0.70;;;0.50;1.00;;;;;;5037351;28;20479;-86
2023/12/06 05:05:13;;;;;;;0.60;0.60;;;0.50;1.00;;;;;;5037388;28;20053;-86
2023/12/06 05:07:39;;;;;;;0.10;0.10;;;0.60;1.00;;;;;;5036375;28;20220;-86
2023/12/06 05:10:05;;;;;;;0.75;0.32;;;0.60;1.00;;;;;;5037741;28;20391;-87
2023/12/06 05:12:31;;;;;;;1.00;1.00;;;0.60;1.00;;;;;;5037270;28;20053;-87
2023/12/06 05:14:56;;;;;;;1.00;0.93;;;0.60;1.00;;;;;;5037090;28;20391;-86
2023/12/06 05:17:22;;;;;;;2.40;1.85;;;0.60;1.00;;;;;;5037891;28;20069;-86
2023/12/06 05:19:47;;;;;;;1.83;1.53;;;0.50;1.00;;;;;;5038074;28;20059;-86
2023/12/06 05:22:13;;;;;;;1.43;1.33;;;0.60;1.00;;;;;;5037024;28;20068;-86
2023/12/06 05:24:39;;;;;;;1.10;1.03;;;0.50;1.00;;;;;;5038182;28;20041;-86
2023/12/06 05:27:04;;;;;;;0.10;0.10;;;0.50;1.00;;;;;;5037882;28;20503;-86
2023/12/06 05:29:31;;;;;;;0.55;0.55;;;0.50;1.00;;;;;;5037667;28;20041;-86
2023/12/06 05:31:57;;;;;;;0.30;0.30;;;0.50;1.00;;;;;;5037879;28;20038;-86
2023/12/06 05:34:23;;;;;;;0.30;0.30;;;0.50;1.00;;;;;;5037417;28;20132;-86
2023/12/06 05:36:48;;;;;;;0.00;0.00;;;0.60;1.00;;;;;;5037573;28;20116;-86
2023/12/06 05:39:14;;;;;;;0.13;0.13;;;0.60;1.00;;;;;;5037421;28;20049;-86
2023/12/06 05:41:40;;;;;;;0.70;0.67;;;0.60;1.00;;;;;;5037743;28;20049;-86
2023/12/06 05:44:05;;;;;;;0.25;0.25;;;0.60;1.00;;;;;;5037738;28;20041;-86
2023/12/06 05:46:31;;;;;;;2.25;0.95;;;0.60;1.00;;;;;;5036441;28;20034;-86
2023/12/06 05:48:57;;;;;;;1.02;1.02;;;0.50;6.80;;;;;;5036414;28;20041;-87
2023/12/06 05:51:23;;;;;;;0.38;0.38;;;0.50;8.30;;;;;;5037404;28;20096;-87
2023/12/06 05:53:49;;;;;;;0.82;0.82;;;0.60;10.00;;;;;;5037429;28;20041;-86
2023/12/06 05:56:15;;;;;;;0.43;0.43;;;0.60;12.30;;;;;;5036614;28;20071;-87
2023/12/06 05:58:41;;;;;;;0.68;0.68;;;0.60;13.20;;;;;;5036324;28;20050;-86
2023/12/06 06:01:07;;;;;;;0.30;0.30;;;0.60;14.70;;;;;;5035177;28;20107;-86
2023/12/06 06:03:33;;;;;;;0.57;0.57;;;0.50;16.50;;;;;;5036176;28;20057;-86
2023/12/06 06:06:05;;;;;;;0.50;0.50;;;0.60;18.20;;;;;;5036657;28;20057;-86
2023/12/06 06:08:31;;;;;;;0.88;0.85;;;0.50;20.80;;;;;;5035815;28;20033;-86
2023/12/06 06:10:57;;;;;;;0.10;0.10;;;0.60;22.60;;;;;;5036047;28;20402;-86
2023/12/06 06:13:22;;;;;;;0.83;0.60;;;0.60;24.90;;;;;;5036216;28;20509;-86
2023/12/06 06:15:48;;;;;;;6.75;1.67;;;0.60;26.40;;;;;;5034653;28;20136;-86
2023/12/06 06:18:13;;;;;;;0.57;0.57;;;0.60;29.90;;;;;;5035734;28;20495;-86
2023/12/06 06:20:39;;;;;;;1.10;1.00;;;0.60;34.70;;;;;;5036057;28;20046;-86
2023/12/06 06:23:04;;;;;;;1.65;0.88;;;0.60;40.40;;;;;;5035999;28;20042;-86
2023/12/06 06:25:30;;;;;;;0.20;0.20;;;0.60;44.10;;;;;;5035915;28;20034;-86
2023/12/06 06:27:56;;;;;;;0.73;0.73;;;0.60;45.40;;;;;;5034403;28;20045;-86
2023/12/06 06:30:21;;;;;;;6.03;2.60;;;0.60;47.60;;;;;;5033951;28;20423;-86
2023/12/06 06:32:47;;;;;;;3.40;1.03;;;0.60;51.00;;;;;;5036010;28;20514;-86
2023/12/06 06:35:13;;;;;;;0.10;0.10;;;0.60;55.30;;;;;;5035178;28;20124;-86
2023/12/06 06:37:38;;;;;;;0.05;0.05;;;0.70;60.00;;;;;;5035547;28;20497;-86
2023/12/06 06:40:08;;;;;;;0.77;0.77;;;0.70;62.60;;;;;;5035715;28;20065;-86
2023/12/06 06:42:33;;;;;;;1.97;0.97;;;0.60;63.10;;;;;;5034824;28;20037;-86
2023/12/06 06:44:59;;;;;;;0.30;0.30;;;0.70;67.00;;;;;;5034810;28;20510;-86
2023/12/06 06:47:27;;;;;;;0.50;0.50;;;0.70;69.50;;;;;;5035007;28;20491;-86
2023/12/06 06:49:53;;;;;;;1.00;0.90;;;0.70;74.60;;;;;;5034779;28;20072;-86
2023/12/06 06:52:19;;;;;;;2.42;1.70;;;0.70;76.50;;;;;;5034417;28;20053;-86
2023/12/06 06:54:45;;;;;;;0.22;0.22;;;0.70;78.50;;;;;;5034151;28;20046;-86
2023/12/06 06:57:10;;;;;;;0.47;0.47;;;0.70;81.00;;;;;;5032742;28;20075;-85
2023/12/06 06:59:36;;;;;;;0.70;0.70;;;0.90;83.60;;;;;;5033392;28;20411;-85
2023/12/06 07:02:02;;;;;;;0.55;0.55;;;0.80;87.90;;;;;;5033357;28;20072;-85
2023/12/06 07:04:28;;;;;;;0.63;0.63;;;0.70;90.40;;;;;;5033091;28;21144;-85
2023/12/06 07:06:53;;;;;;;1.55;1.45;;;0.70;91.40;;;;;;5029718;28;20103;-86
2023/12/06 07:09:20;;;;;;;1.23;0.47;;;0.70;92.80;;;;;;5033135;28;20225;-86
2023/12/06 07:11:45;;;;;;;0.67;0.67;;;0.80;94.50;;;;;;5031806;28;20151;-86
2023/12/06 07:14:11;;;;;;;1.02;0.93;;;0.80;95.80;;;;;;5033434;28;20046;-86
2023/12/06 07:16:37;;;;;;;0.90;0.40;;;0.80;97.90;;;;;;5033166;28;20050;-86
2023/12/06 07:19:02;;;;;;;3.13;2.83;;;0.80;99.00;;;;;;5033437;28;20064;-86
2023/12/06 07:21:28;;;;;;;1.27;1.17;;;0.80;99.90;;;;;;5031800;28;20041;-86
2023/12/06 07:23:54;;;;;;;1.30;1.17;;;0.90;99.90;;;;;;5029921;28;20045;-86
2023/12/06 07:26:20;;;;;;;0.60;0.60;;;0.90;99.90;;;;;;5030542;28;20431;-85
2023/12/06 07:28:45;;;;;;;1.58;1.48;;;0.90;99.90;;;;;;5029140;28;20554;-85
2023/12/06 07:31:11;;;;;;;2.63;1.33;;;0.90;99.90;;;;;;5030447;28;20068;-86
2023/12/06 07:33:39;;;;;;;0.98;0.98;;;0.90;99.90;;;;;;5030671;28;20060;-86
2023/12/06 07:36:06;;;;;;;0.90;0.90;;;0.90;99.90;;;;;;5030754;28;20037;-86
2023/12/06 07:38:31;;;;;;;1.48;1.38;;;0.90;99.90;;;;;;5030688;28;20548;-86
2023/12/06 07:40:57;;;;;;;1.50;1.40;;;0.90;99.90;;;;;;5031243;28;20112;-86
2023/12/06 07:43:23;;;;;;;0.87;0.37;;;0.90;99.90;;;;;;5030141;28;20125;-86
2023/12/06 07:45:48;;;;;;;0.40;0.40;;;0.90;99.90;;;;;;5028848;28;20081;-86
2023/12/06 07:48:15;;;;;;;0.75;0.75;;;1.00;99.90;;;;;;5030829;28;20128;-86
2023/12/06 07:50:40;;;;;;;0.47;0.47;;;1.00;99.90;;;;;;5029642;28;20555;-86
2023/12/06 07:53:06;;;;;;;0.35;0.35;;;1.10;99.90;;;;;;5030892;28;20117;-86
2023/12/06 07:55:32;;;;;;;1.70;0.97;;;1.10;99.90;;;;;;5029289;28;20065;-86
2023/12/06 07:57:58;;;;;;;0.57;0.57;;;1.10;99.90;;;;;;5029576;28;20057;-86
2023/12/06 08:00:25;;;;;;;0.68;0.68;;;1.10;99.90;;;;;;5031184;28;20048;-86
2023/12/06 08:02:50;;;;;;;0.87;0.30;;;1.10;99.90;;;;;;5030673;28;20474;-86
2023/12/06 08:05:19;;;;;;;2.17;0.98;;;1.10;99.90;;;;;;5031365;28;20054;-86
2023/12/06 08:07:45;;;;;;;1.05;0.98;;;1.10;99.90;;;;;;5031350;28;20084;-86
2023/12/06 08:10:13;;;;;;;0.43;0.43;;;1.10;99.90;;;;;;5031002;28;20072;-86
2023/12/06 08:12:39;;;;;;;0.45;0.43;;;1.10;99.90;;;;;;5025880;28;20172;-86
2023/12/06 08:15:06;;;;;;;0.40;0.40;;;1.10;99.90;;;;;;5030500;28;20052;-86
2023/12/06 08:17:31;;;;;;;0.10;0.10;;;1.20;99.90;;;;;;5030585;28;20067;-86
2023/12/06 08:19:57;;;;;;;0.47;0.47;;;1.20;99.90;;;;;;5030884;28;20411;-86
2023/12/06 08:22:23;;;;;;;0.80;0.80;;;1.20;99.90;;;;;;5031178;28;20041;-86
2023/12/06 08:24:49;;;;;;;0.50;0.50;;;1.20;99.90;;;;;;5031420;28;20050;-86
2023/12/06 08:27:14;;;;;;;0.52;0.52;;;1.20;99.90;;;;;;5034190;28;20060;-86
2023/12/06 08:29:40;;;;;;;0.88;0.88;;;1.20;99.90;;;;;;5029770;28;20399;-86
2023/12/06 08:32:07;;;;;;;0.20;0.20;;;1.30;99.90;;;;;;5030186;28;20049;-86
2023/12/06 08:34:32;;;;;;;0.88;0.85;;;1.30;99.90;;;;;;5030623;28;20049;-85
2023/12/06 08:36:58;;;;;;;0.22;0.22;;;1.30;99.90;;;;;;5030427;28;20442;-85
2023/12/06 08:39:23;;;;;;;0.63;0.63;;;1.30;99.90;;;;;;5030550;28;20053;-85
2023/12/06 08:41:49;;;;;;;0.83;0.83;;;1.40;99.90;;;;;;5030594;28;20552;-86
2023/12/06 08:44:14;;;;;;;0.85;0.82;;;1.40;99.90;;;;;;5030036;28;20038;-86
2023/12/06 08:46:42;;;;;;;0.20;0.20;;;1.40;99.90;;;;;;5029280;28;20410;-86
2023/12/06 08:49:07;;;;;;;0.47;0.47;;;1.40;99.90;;;;;;5028946;28;20100;-85
2023/12/06 08:51:33;;;;;;;1.33;0.52;;;1.50;99.90;;;;;;5030079;28;20503;-85
2023/12/06 08:53:58;;;;;;;1.35;0.85;;;1.50;99.90;;;;;;5028767;28;20140;-85
2023/12/06 08:56:24;;;;;;;1.38;1.27;;;1.50;99.90;;;;;;5029851;28;20372;-85
2023/12/06 08:58:50;;;;;;;1.02;1.02;;;1.50;99.90;;;;;;5029994;28;20053;-85
2023/12/06 09:01:15;;;;;;;2.05;1.58;;;1.40;99.90;;;;;;5029654;28;20725;-85
2023/12/06 09:03:41;;;;;;;3.63;1.40;;;1.50;99.90;;;;;;5029874;28;20053;-85
2023/12/06 09:06:07;;;;;;;1.10;1.00;;;1.60;99.90;;;;;;5028954;28;20072;-85
2023/12/06 09:08:33;;;;;;;0.40;0.40;;;1.60;99.90;;;;;;5029459;28;20491;-85
2023/12/06 09:10:59;;;;;;;5.07;1.75;;;1.70;99.90;;;;;;5029518;28;20045;-85
2023/12/06 09:13:24;;;;;;;0.17;0.17;;;1.70;99.90;;;;;;5029209;28;20395;-85
2023/12/06 09:15:50;;;;;;;3.05;1.92;;;1.80;99.90;;;;;;5029417;28;20099;-85
2023/12/06 09:18:15;;;;;;;0.43;0.43;;;1.80;99.90;;;;;;5028156;28;20124;-86
2023/12/06 09:20:42;;;;;;;0.38;0.38;;;1.80;99.90;;;;;;5028336;28;20060;-86
2023/12/06 09:23:08;;;;;;;0.20;0.20;;;2.80;99.90;;;;;;5030149;28;20060;-86
2023/12/06 09:25:34;;;;;;;4.90;0.82;;;1.90;99.90;;;;;;5031597;28;20403;-87
2023/12/06 09:28:00;;;;;;;1.30;1.25;;;1.90;99.90;;;;;;5031682;28;20049;-87
2023/12/06 09:30:25;;;;;;;2.10;1.10;;;1.90;99.90;;;;;;5031735;28;20059;-87
2023/12/06 09:34:46;;;;;;;2.17;1.35;;;1.90;99.90;;;;;;5031675;28;20037;-88
2023/12/06 09:37:18;;;;;;;1.95;1.85;;;2.60;99.90;;;;;;4916173;28;20047;-88
2023/12/06 09:39:43;;;;;;;0.20;0.20;;;2.70;99.90;;;;;;4955908;28;20097;-88
2023/12/06 09:42:10;;;;;;;0.45;0.45;;;2.00;99.90;;;;;;5003661;28;20473;-88
2023/12/06 09:44:41;;;;;;;0.10;0.10;;;2.10;99.90;;;;;;5019146;28;20461;-88
2023/12/06 09:47:07;;;;;;;0.47;0.47;;;2.10;99.90;;;;;;5032137;28;20418;-88
2023/12/06 09:49:33;;;;;;;0.68;0.60;;;2.10;99.90;;;;;;5031778;28;20048;-88
2023/12/06 09:52:19;;;;;;;0.25;0.25;;;2.10;99.90;;;;;;5033009;28;20092;-88
2023/12/06 09:54:46;;;;;;;0.70;0.70;;;2.10;99.90;;;;;;5032201;28;20084;-87
2023/12/06 09:57:11;;;;;;;0.80;0.52;;;2.10;99.90;;;;;;5015019;28;20045;-87
2023/12/06 09:59:38;;;;;;;0.43;0.43;;;2.10;99.90;;;;;;5015066;28;20044;-87
2023/12/06 10:02:03;;;;;;;0.75;0.75;;;3.10;99.90;;;;;;5032798;28;20081;-88
2023/12/06 10:04:29;;;;;;;3.75;2.05;;;2.10;99.90;;;;;;5031998;28;20093;-88
2023/12/06 10:06:55;;;;;;;0.25;0.25;;;2.10;99.90;;;;;;5015970;28;20451;-88
2023/12/06 10:09:21;;;;;;;3.10;0.95;;;2.10;99.90;;;;;;5016140;28;20045;-89
2023/12/06 10:11:49;;;;;;;1.05;0.98;;;2.00;99.90;;;;;;5016004;28;20487;-89
2023/12/06 10:14:19;;;;;;;0.20;0.20;;;2.20;99.90;;;;;;5015793;28;20154;-88
2023/12/06 10:16:46;;;;;;;0.20;0.20;;;3.10;99.90;;;;;;5032513;28;20457;-88
2023/12/06 10:19:19;;;;;;;0.38;0.38;;;2.90;99.90;;;;;;5015950;28;20433;-88
2023/12/06 10:21:46;;;;;;;0.75;0.30;;;2.50;99.90;;;;;;5032246;28;20051;-88
2023/12/06 10:24:13;;;;;;;0.40;0.40;;;2.60;99.90;;;;;;5032059;28;20511;-88
2023/12/06 10:26:39;;;;;;;0.40;0.40;;;2.50;99.90;;;;;;5015849;28;20122;-89
2023/12/06 10:29:05;;;;;;;0.60;0.60;;;2.50;99.90;;;;;;5033564;28;20392;-88
2023/12/06 10:31:42;;;;;;;0.40;0.40;;;3.40;99.90;;;;;;5033592;28;20041;-88
2023/12/06 10:34:08;;;;;;;0.47;0.47;;;2.60;99.90;;;;;;5013736;28;20037;-88
2023/12/06 10:36:38;;;;;;;0.60;0.60;;;2.60;99.90;;;;;;5012142;28;20042;-88
2023/12/06 10:39:13;;;;;;;0.35;0.35;;;2.50;99.90;;;;;;4995751;28;20593;-88
2023/12/06 10:41:42;;;;;;;0.45;0.38;;;2.50;99.90;;;;;;4995783;28;20081;-89
2023/12/06 10:44:10;;;;;;;0.40;0.40;;;2.40;99.90;;;;;;5013261;28;20052;-89
2023/12/06 10:46:36;;;;;;;0.10;0.10;;;3.20;99.90;;;;;;5013530;28;20041;-89
2023/12/06 10:49:02;;;;;;;0.10;0.10;;;2.90;99.90;;;;;;5011898;28;20176;-89
2023/12/06 10:51:30;;;;;;;0.77;0.77;;;2.70;99.90;;;;;;5013379;28;20050;-89
2023/12/06 10:53:59;;;;;;;0.70;0.55;;;3.10;99.90;;;;;;5013240;28;20100;-89
2023/12/06 10:56:27;;;;;;;0.90;0.85;;;2.50;99.90;;;;;;5013324;28;20040;-89
2023/12/06 10:58:55;;;;;;;0.22;0.22;;;2.60;99.90;;;;;;5011698;28;20050;-88
2023/12/06 11:01:23;;;;;;;0.38;0.38;;;2.60;99.90;;;;;;5030592;28;20123;-88
2023/12/06 11:03:50;;;;;;;0.10;0.10;;;2.70;99.90;;;;;;5032433;28;20053;-88
2023/12/06 11:06:50;;;;;;;1.08;0.98;;;2.80;99.90;;;;;;5031743;28;20431;-88
2023/12/06 11:09:27;;;;;;;0.63;0.63;;;2.80;99.90;;;;;;5014667;28;20053;-88
2023/12/06 11:12:18;;;;;;;1.70;1.60;;;4.10;99.90;;;;;;5031299;28;20432;-88
2023/12/06 11:14:57;;;;;;;0.10;0.10;;;2.90;99.90;;;;;;5030694;28;20063;-88
2023/12/06 11:17:38;;;;;;;1.23;0.35;;;3.00;99.90;;;;;;5014606;28;20048;-88
2023/12/06 11:20:07;;;;;;;0.40;0.40;;;3.00;99.90;;;;;;5014573;28;20057;-88
2023/12/06 11:22:35;;;;;;;0.57;0.57;;;3.00;99.90;;;;;;5012557;28;20041;-87
2023/12/06 11:25:01;;;;;;;2.25;1.25;;;2.90;99.90;;;;;;5030194;28;20056;-87
2023/12/06 11:27:27;;;;;;;0.68;0.60;;;3.00;99.90;;;;;;5029363;28;20778;-87
2023/12/06 11:29:53;;;;;;;1.00;0.65;;;3.00;99.90;;;;;;5030099;28;20044;-88
2023/12/06 11:32:18;;;;;;;0.65;0.65;;;3.00;99.90;;;;;;5013414;28;20120;-87
2023/12/06 11:34:55;;;;;;;0.32;0.32;;;3.00;99.90;;;;;;5029162;28;20495;-87
2023/12/06 11:37:22;;;;;;;0.47;0.47;;;3.00;99.90;;;;;;5029657;28;20056;-87
2023/12/06 11:40:07;;;;;;;0.25;0.25;;;3.10;99.90;;;;;;5013817;28;20052;-87
2023/12/06 11:42:37;;;;;;;1.88;0.85;;;3.80;99.90;;;;;;5012347;28;20088;-87
2023/12/06 11:45:04;;;;;;;0.00;0.00;;;3.20;99.90;;;;;;5028130;28;20354;-87
2023/12/06 11:47:35;;;;;;;0.45;0.45;;;3.20;99.90;;;;;;5012599;28;20046;-87
2023/12/06 11:50:00;;;;;;;1.38;1.27;;;3.30;86.20;;;;;;5012862;28;20119;-88
2023/12/06 11:52:26;;;;;;;1.77;1.67;;;3.30;78.10;;;;;;5030595;28;20033;-88
2023/12/06 11:54:52;;;;;;;5.68;2.75;;;3.30;69.50;;;;;;5030488;28;20063;-88
2023/12/06 11:57:18;;;;;;;0.70;0.60;;;3.40;28.00;;;;;;5014500;28;20476;-88
2023/12/06 11:59:44;;;;;;;0.43;0.43;;;3.40;14.50;;;;;;5014216;28;20080;-88
2023/12/06 12:02:11;;;;;;;0.43;0.40;;;3.40;1.00;;;;;;5033301;28;20056;-88
2023/12/06 12:04:37;;;;;;;0.45;0.45;;;3.30;1.00;;;;;;5019757;28;20057;-88
2023/12/06 12:07:03;;;;;;;0.47;0.47;;;3.40;1.00;;;;;;5036223;28;20042;-88
2023/12/06 12:09:29;;;;;;;0.85;0.85;;;3.20;1.00;;;;;;5038146;28;20049;-88
2023/12/06 12:11:57;;;;;;;4.75;2.03;;;3.10;99.90;;;;;;5036420;28;20041;-88
2023/12/06 12:14:23;;;;;;;0.05;0.05;;;3.10;99.90;;;;;;5035956;28;20037;-88
2023/12/06 12:16:49;;;;;;;0.57;0.57;;;4.10;99.90;;;;;;5035073;28;20511;-89
2023/12/06 12:19:15;;;;;;;0.63;0.50;;;2.90;1.00;;;;;;5037228;28;20037;-88
2023/12/06 12:21:40;;;;;;;1.55;1.25;;;2.90;99.90;;;;;;5020075;28;20514;-88
2023/12/06 12:24:07;;;;;;;0.22;0.22;;;2.80;1.00;;;;;;5037805;28;20049;-88
2023/12/06 12:26:35;;;;;;;0.20;0.20;;;2.80;1.00;;;;;;5020555;28;20080;-88
2023/12/06 12:29:01;;;;;;;0.25;0.25;;;2.80;1.00;;;;;;5036501;28;20056;-89
2023/12/06 12:31:31;;;;;;;1.48;1.20;;;2.90;99.90;;;;;;5036576;28;20045;-88
2023/12/06 12:33:57;;;;;;;1.15;1.08;;;3.10;99.90;;;;;;5038742;28;20052;-88
2023/12/06 12:36:24;;;;;;;0.52;0.52;;;2.90;99.90;;;;;;5038013;28;20045;-88
2023/12/06 12:38:50;;;;;;;0.20;0.20;;;2.90;1.00;;;;;;5038097;28;20037;-88
2023/12/06 12:41:16;;;;;;;0.17;0.17;;;2.90;94.10;;;;;;5037346;28;20052;-88
2023/12/06 12:43:42;;;;;;;0.00;0.00;;;2.80;1.00;;;;;;5038397;28;20060;-88
2023/12/06 12:46:09;;;;;;;0.38;0.38;;;2.80;1.00;;;;;;5020517;28;20052;-88
2023/12/06 12:48:35;;;;;;;4.18;0.77;;;2.80;1.00;;;;;;5020893;28;20136;-89
2023/12/06 12:51:14;;;;;;;1.98;0.65;;;2.80;99.90;;;;;;5039193;28;20073;-89
2023/12/06 12:53:44;;;;;;;2.72;2.10;;;2.80;99.90;;;;;;5037799;28;20050;-89
2023/12/06 12:56:12;;;;;;;2.42;1.67;;;2.80;99.90;;;;;;5038278;28;20069;-89
2023/12/06 12:58:38;;;;;;;0.40;0.40;;;2.70;99.90;;;;;;5039153;28;20045;-89